Main page
METAR-TAF:

METAR-TAF

Airports :

Spencer Municipal Airport

Spencer, Iowa, United States

latitude: 43-09-56N, longitude: 095-12-10W, elevation: 1338 ft

Current weather observation

The report was made 1 hour and 4 minutes ago, at 20:53 UTC
Wind 14 mph from the Southwest
Temperature 18°F
Humidity 52%
Pressure 30.66 in. Hg
Visibility: 10 miles
Clear sky

METAR: KSPW 202053Z AUTO 22012KT 10SM CLR M08/M16 A3066 RMK AO2 SLP414 T10781156 56026

Time: 15:57 (21:57 UTC)


TAF: missing

Weather observations and forecasts of more than 4000 airports (METAR and TAF reports).

The available stations are represented by yellow and red dots on the map.

Hover mouse over dot to see the name of the station.

Then click to see weather observations and forecasts.

To change the map : click on the green buttons with a black cross to zoom in, on the green button with a dash to zoom out, or on the green arrows for adjacent maps.


METAR-TAF: